sensor_id;sensor_type;location;lat;lon;timestamp;temperature;humidity
16305;DHT22;8261;47.678;-122.174;2023-07-02T00:02:09;27.70;94.50
16305;DHT22;8261;47.678;-122.174;2023-07-02T00:04:42;27.50;95.30
16305;DHT22;8261;47.678;-122.174;2023-07-02T00:07:14;27.50;95.00
16305;DHT22;8261;47.678;-122.174;2023-07-02T00:09:47;27.50;95.50
16305;DHT22;8261;47.678;-122.174;2023-07-02T00:12:20;27.40;94.40
16305;DHT22;8261;47.678;-122.174;2023-07-02T00:15:13;27.10;94.90
16305;DHT22;8261;47.678;-122.174;2023-07-02T00:17:48;27.00;95.60
16305;DHT22;8261;47.678;-122.174;2023-07-02T00:20:21;27.00;94.80
16305;DHT22;8261;47.678;-122.174;2023-07-02T00:23:05;26.90;94.80
16305;DHT22;8261;47.678;-122.174;2023-07-02T00:25:38;26.90;94.50
16305;DHT22;8261;47.678;-122.174;2023-07-02T00:28:16;27.00;96.50
16305;DHT22;8261;47.678;-122.174;2023-07-02T00:30:50;27.00;95.30
16305;DHT22;8261;47.678;-122.174;2023-07-02T00:33:22;26.80;94.60
16305;DHT22;8261;47.678;-122.174;2023-07-02T00:35:53;26.90;95.50
16305;DHT22;8261;47.678;-122.174;2023-07-02T00:38:25;26.90;94.00
16305;DHT22;8261;47.678;-122.174;2023-07-02T00:41:01;26.70;94.20
16305;DHT22;8261;47.678;-122.174;2023-07-02T00:43:37;26.50;94.90
16305;DHT22;8261;47.678;-122.174;2023-07-02T00:46:34;26.40;95.20
16305;DHT22;8261;47.678;-122.174;2023-07-02T00:49:05;26.50;95.40
16305;DHT22;8261;47.678;-122.174;2023-07-02T00:51:37;26.60;95.10
16305;DHT22;8261;47.678;-122.174;2023-07-02T00:54:10;26.90;95.00
16305;DHT22;8261;47.678;-122.174;2023-07-02T00:56:42;27.20;94.00
16305;DHT22;8261;47.678;-122.174;2023-07-02T00:59:15;27.30;94.30
16305;DHT22;8261;47.678;-122.174;2023-07-02T01:01:51;27.70;93.90
16305;DHT22;8261;47.678;-122.174;2023-07-02T01:04:25;28.00;94.00
16305;DHT22;8261;47.678;-122.174;2023-07-02T01:06:59;28.10;93.40
16305;DHT22;8261;47.678;-122.174;2023-07-02T01:09:58;28.20;93.30
16305;DHT22;8261;47.678;-122.174;2023-07-02T01:12:30;28.10;94.40
16305;DHT22;8261;47.678;-122.174;2023-07-02T01:15:04;28.30;93.60
16305;DHT22;8261;47.678;-122.174;2023-07-02T01:17:41;28.10;93.70
16305;DHT22;8261;47.678;-122.174;2023-07-02T01:20:16;28.00;94.80
16305;DHT22;8261;47.678;-122.174;2023-07-02T01:22:49;28.20;94.30
16305;DHT22;8261;47.678;-122.174;2023-07-02T01:25:22;28.20;94.00
16305;DHT22;8261;47.678;-122.174;2023-07-02T01:27:54;28.30;94.70
16305;DHT22;8261;47.678;-122.174;2023-07-02T01:30:27;28.30;94.80
16305;DHT22;8261;47.678;-122.174;2023-07-02T01:33:08;27.90;94.60
16305;DHT22;8261;47.678;-122.174;2023-07-02T01:35:43;28.00;95.20
16305;DHT22;8261;47.678;-122.174;2023-07-02T01:38:16;28.30;93.80
16305;DHT22;8261;47.678;-122.174;2023-07-02T01:40:47;27.80;94.90
16305;DHT22;8261;47.678;-122.174;2023-07-02T01:43:19;28.20;94.80
16305;DHT22;8261;47.678;-122.174;2023-07-02T01:45:51;28.30;94.60
16305;DHT22;8261;47.678;-122.174;2023-07-02T01:48:45;28.20;94.80
16305;DHT22;8261;47.678;-122.174;2023-07-02T01:51:21;28.10;94.90
16305;DHT22;8261;47.678;-122.174;2023-07-02T01:53:55;27.60;95.10
16305;DHT22;8261;47.678;-122.174;2023-07-02T01:56:27;27.90;95.10
16305;DHT22;8261;47.678;-122.174;2023-07-02T01:58:59;28.30;94.50
16305;DHT22;8261;47.678;-122.174;2023-07-02T02:01:31;28.10;94.20
16305;DHT22;8261;47.678;-122.174;2023-07-02T02:04:02;28.00;94.40
16305;DHT22;8261;47.678;-122.174;2023-07-02T02:06:42;27.50;94.60
16305;DHT22;8261;47.678;-122.174;2023-07-02T02:09:14;26.70;94.40
16305;DHT22;8261;47.678;-122.174;2023-07-02T02:11:59;26.30;95.00
16305;DHT22;8261;47.678;-122.174;2023-07-02T02:14:32;25.60;95.10
16305;DHT22;8261;47.678;-122.174;2023-07-02T02:17:45;25.20;95.60
16305;DHT22;8261;47.678;-122.174;2023-07-02T02:20:16;24.70;96.30
16305;DHT22;8261;47.678;-122.174;2023-07-02T02:22:50;24.40;96.50
16305;DHT22;8261;47.678;-122.174;2023-07-02T02:25:21;24.20;98.20
16305;DHT22;8261;47.678;-122.174;2023-07-02T02:27:52;23.90;97.40
16305;DHT22;8261;47.678;-122.174;2023-07-02T02:30:23;23.60;97.80
16305;DHT22;8261;47.678;-122.174;2023-07-02T02:32:55;23.40;98.30
16305;DHT22;8261;47.678;-122.174;2023-07-02T02:35:27;23.20;98.60
16305;DHT22;8261;47.678;-122.174;2023-07-02T02:38:03;23.00;98.60
16305;DHT22;8261;47.678;-122.174;2023-07-02T02:40:37;22.70;99.10
16305;DHT22;8261;47.678;-122.174;2023-07-02T02:43:08;22.50;99.30
16305;DHT22;8261;47.678;-122.174;2023-07-02T02:45:40;22.30;99.90
16305;DHT22;8261;47.678;-122.174;2023-07-02T02:48:12;22.10;99.90
16305;DHT22;8261;47.678;-122.174;2023-07-02T02:50:45;22.00;99.90
16305;DHT22;8261;47.678;-122.174;2023-07-02T02:55:55;21.70;99.90
16305;DHT22;8261;47.678;-122.174;2023-07-02T03:01:04;21.40;99.90
16305;DHT22;8261;47.678;-122.174;2023-07-02T03:03:47;21.20;99.90
16305;DHT22;8261;47.678;-122.174;2023-07-02T03:06:19;21.10;99.90
16305;DHT22;8261;47.678;-122.174;2023-07-02T03:08:53;21.00;99.90
16305;DHT22;8261;47.678;-122.174;2023-07-02T03:11:29;20.90;99.90
16305;DHT22;8261;47.678;-122.174;2023-07-02T03:14:01;20.80;99.90
16305;DHT22;8261;47.678;-122.174;2023-07-02T03:16:34;20.80;99.90
16305;DHT22;8261;47.678;-122.174;2023-07-02T03:21:47;20.50;99.90
16305;DHT22;8261;47.678;-122.174;2023-07-02T03:24:42;20.40;99.90
16305;DHT22;8261;47.678;-122.174;2023-07-02T03:29:51;20.10;99.90
16305;DHT22;8261;47.678;-122.174;2023-07-02T03:32:24;20.00;99.90
16305;DHT22;8261;47.678;-122.174;2023-07-02T03:34:56;19.90;99.90
16305;DHT22;8261;47.678;-122.174;2023-07-02T03:37:29;19.80;99.90
16305;DHT22;8261;47.678;-122.174;2023-07-02T03:40:01;19.60;99.90
16305;DHT22;8261;47.678;-122.174;2023-07-02T03:42:33;19.50;99.90
16305;DHT22;8261;47.678;-122.174;2023-07-02T03:45:08;19.30;99.90
16305;DHT22;8261;47.678;-122.174;2023-07-02T03:47:43;19.10;99.90
16305;DHT22;8261;47.678;-122.174;2023-07-02T03:50:15;18.90;99.90
16305;DHT22;8261;47.678;-122.174;2023-07-02T03:52:47;18.90;99.90
16305;DHT22;8261;47.678;-122.174;2023-07-02T03:55:18;18.70;99.90
16305;DHT22;8261;47.678;-122.174;2023-07-02T03:57:50;18.50;99.90
16305;DHT22;8261;47.678;-122.174;2023-07-02T04:00:25;18.40;99.90
16305;DHT22;8261;47.678;-122.174;2023-07-02T04:02:57;18.30;99.90
16305;DHT22;8261;47.678;-122.174;2023-07-02T04:05:28;18.20;99.90
16305;DHT22;8261;47.678;-122.174;2023-07-02T04:08:00;18.10;99.90
16305;DHT22;8261;47.678;-122.174;2023-07-02T04:10:32;18.00;99.90
16305;DHT22;8261;47.678;-122.174;2023-07-02T04:13:04;18.00;99.90
16305;DHT22;8261;47.678;-122.174;2023-07-02T04:15:38;17.90;99.90
16305;DHT22;8261;47.678;-122.174;2023-07-02T04:18:10;17.80;99.90
16305;DHT22;8261;47.678;-122.174;2023-07-02T04:20:43;17.70;99.90
16305;DHT22;8261;47.678;-122.174;2023-07-02T04:23:15;17.60;99.90
16305;DHT22;8261;47.678;-122.174;2023-07-02T04:25:47;17.60;99.90
16305;DHT22;8261;47.678;-122.174;2023-07-02T04:28:39;17.60;99.90
16305;DHT22;8261;47.678;-122.174;2023-07-02T04:31:17;17.50;99.90
16305;DHT22;8261;47.678;-122.174;2023-07-02T04:33:49;17.50;99.90
16305;DHT22;8261;47.678;-122.174;2023-07-02T04:36:29;17.50;99.90
16305;DHT22;8261;47.678;-122.174;2023-07-02T04:39:02;17.40;99.90
16305;DHT22;8261;47.678;-122.174;2023-07-02T04:41:34;17.40;99.90
16305;DHT22;8261;47.678;-122.174;2023-07-02T04:44:08;17.40;99.90
16305;DHT22;8261;47.678;-122.174;2023-07-02T04:46:43;17.40;99.90
16305;DHT22;8261;47.678;-122.174;2023-07-02T04:49:14;17.30;99.90
16305;DHT22;8261;47.678;-122.174;2023-07-02T04:51:50;17.30;99.90
16305;DHT22;8261;47.678;-122.174;2023-07-02T04:54:23;17.30;99.90
16305;DHT22;8261;47.678;-122.174;2023-07-02T04:56:55;17.20;99.90
16305;DHT22;8261;47.678;-122.174;2023-07-02T04:59:28;17.20;99.90
16305;DHT22;8261;47.678;-122.174;2023-07-02T05:02:03;17.10;99.90
16305;DHT22;8261;47.678;-122.174;2023-07-02T05:04:37;17.10;99.90
16305;DHT22;8261;47.678;-122.174;2023-07-02T05:07:08;17.10;99.90
16305;DHT22;8261;47.678;-122.174;2023-07-02T05:09:42;17.00;99.90
16305;DHT22;8261;47.678;-122.174;2023-07-02T05:12:19;16.90;99.90
16305;DHT22;8261;47.678;-122.174;2023-07-02T05:14:52;16.90;99.90
16305;DHT22;8261;47.678;-122.174;2023-07-02T05:17:27;16.80;99.90
16305;DHT22;8261;47.678;-122.174;2023-07-02T05:20:02;16.70;99.90
16305;DHT22;8261;47.678;-122.174;2023-07-02T05:22:34;16.70;99.90
16305;DHT22;8261;47.678;-122.174;2023-07-02T05:25:07;16.60;99.90
16305;DHT22;8261;47.678;-122.174;2023-07-02T05:27:43;16.60;99.90
16305;DHT22;8261;47.678;-122.174;2023-07-02T05:32:55;16.60;99.90
16305;DHT22;8261;47.678;-122.174;2023-07-02T05:38:06;16.50;99.90
16305;DHT22;8261;47.678;-122.174;2023-07-02T05:40:41;16.50;99.90
16305;DHT22;8261;47.678;-122.174;2023-07-02T05:43:14;16.50;99.90
16305;DHT22;8261;47.678;-122.174;2023-07-02T05:45:46;16.50;99.90
16305;DHT22;8261;47.678;-122.174;2023-07-02T05:48:24;16.50;99.90
16305;DHT22;8261;47.678;-122.174;2023-07-02T05:50:57;16.40;99.90
16305;DHT22;8261;47.678;-122.174;2023-07-02T05:53:33;16.40;99.90
16305;DHT22;8261;47.678;-122.174;2023-07-02T05:56:12;16.40;99.90
16305;DHT22;8261;47.678;-122.174;2023-07-02T05:59:13;16.30;99.90
16305;DHT22;8261;47.678;-122.174;2023-07-02T06:01:48;16.30;99.90
16305;DHT22;8261;47.678;-122.174;2023-07-02T06:04:29;16.30;99.90
16305;DHT22;8261;47.678;-122.174;2023-07-02T06:07:04;16.20;99.90
16305;DHT22;8261;47.678;-122.174;2023-07-02T06:09:36;16.20;99.90
16305;DHT22;8261;47.678;-122.174;2023-07-02T06:12:09;16.20;99.90
16305;DHT22;8261;47.678;-122.174;2023-07-02T06:14:42;16.10;99.90
16305;DHT22;8261;47.678;-122.174;2023-07-02T06:17:17;16.10;99.90
16305;DHT22;8261;47.678;-122.174;2023-07-02T06:20:09;16.00;99.90
16305;DHT22;8261;47.678;-122.174;2023-07-02T06:22:41;16.00;99.90
16305;DHT22;8261;47.678;-122.174;2023-07-02T06:25:15;15.90;99.90
16305;DHT22;8261;47.678;-122.174;2023-07-02T06:27:47;15.90;99.90
16305;DHT22;8261;47.678;-122.174;2023-07-02T06:30:21;15.80;99.90
16305;DHT22;8261;47.678;-122.174;2023-07-02T06:32:55;15.80;99.90
16305;DHT22;8261;47.678;-122.174;2023-07-02T06:35:30;15.80;99.90
16305;DHT22;8261;47.678;-122.174;2023-07-02T06:38:02;15.70;99.90
16305;DHT22;8261;47.678;-122.174;2023-07-02T06:40:38;15.60;99.90
16305;DHT22;8261;47.678;-122.174;2023-07-02T06:43:11;15.60;99.90
16305;DHT22;8261;47.678;-122.174;2023-07-02T06:45:49;15.60;99.90
16305;DHT22;8261;47.678;-122.174;2023-07-02T06:48:29;15.40;99.90
16305;DHT22;8261;47.678;-122.174;2023-07-02T06:51:08;15.50;99.90
16305;DHT22;8261;47.678;-122.174;2023-07-02T06:53:46;15.50;99.90
16305;DHT22;8261;47.678;-122.174;2023-07-02T06:56:19;15.50;99.90
16305;DHT22;8261;47.678;-122.174;2023-07-02T06:58:51;15.40;99.90
16305;DHT22;8261;47.678;-122.174;2023-07-02T07:01:24;15.40;99.90
16305;DHT22;8261;47.678;-122.174;2023-07-02T07:03:56;15.40;99.90
16305;DHT22;8261;47.678;-122.174;2023-07-02T07:06:32;15.40;99.90
16305;DHT22;8261;47.678;-122.174;2023-07-02T07:09:07;15.30;99.90
16305;DHT22;8261;47.678;-122.174;2023-07-02T07:11:39;15.40;99.90
16305;DHT22;8261;47.678;-122.174;2023-07-02T07:14:12;15.30;99.90
16305;DHT22;8261;47.678;-122.174;2023-07-02T07:16:44;15.30;99.90
16305;DHT22;8261;47.678;-122.174;2023-07-02T07:19:17;15.30;99.90
16305;DHT22;8261;47.678;-122.174;2023-07-02T07:21:51;15.30;99.90
16305;DHT22;8261;47.678;-122.174;2023-07-02T07:24:23;15.20;99.90
16305;DHT22;8261;47.678;-122.174;2023-07-02T07:26:57;15.20;99.90
16305;DHT22;8261;47.678;-122.174;2023-07-02T07:29:30;15.20;99.90
16305;DHT22;8261;47.678;-122.174;2023-07-02T07:32:02;15.10;99.90
16305;DHT22;8261;47.678;-122.174;2023-07-02T07:34:35;15.10;99.90
16305;DHT22;8261;47.678;-122.174;2023-07-02T07:37:10;15.10;99.90
16305;DHT22;8261;47.678;-122.174;2023-07-02T07:39:44;15.00;99.90
16305;DHT22;8261;47.678;-122.174;2023-07-02T07:42:15;15.00;99.90
16305;DHT22;8261;47.678;-122.174;2023-07-02T07:44:49;14.90;99.90
16305;DHT22;8261;47.678;-122.174;2023-07-02T07:47:22;14.90;99.90
16305;DHT22;8261;47.678;-122.174;2023-07-02T07:49:55;14.90;99.90
16305;DHT22;8261;47.678;-122.174;2023-07-02T07:52:31;14.80;99.90
16305;DHT22;8261;47.678;-122.174;2023-07-02T07:55:04;14.80;99.90
16305;DHT22;8261;47.678;-122.174;2023-07-02T07:57:37;14.80;99.90
16305;DHT22;8261;47.678;-122.174;2023-07-02T08:00:10;14.70;99.90
16305;DHT22;8261;47.678;-122.174;2023-07-02T08:02:41;14.80;99.90
16305;DHT22;8261;47.678;-122.174;2023-07-02T08:05:14;14.70;99.90
16305;DHT22;8261;47.678;-122.174;2023-07-02T08:07:48;14.70;99.90
16305;DHT22;8261;47.678;-122.174;2023-07-02T08:10:25;14.60;99.90
16305;DHT22;8261;47.678;-122.174;2023-07-02T08:13:01;14.60;99.90
16305;DHT22;8261;47.678;-122.174;2023-07-02T08:15:32;14.60;99.90
16305;DHT22;8261;47.678;-122.174;2023-07-02T08:18:05;14.60;99.90
16305;DHT22;8261;47.678;-122.174;2023-07-02T08:20:38;14.60;99.90
16305;DHT22;8261;47.678;-122.174;2023-07-02T08:23:13;14.60;99.90
16305;DHT22;8261;47.678;-122.174;2023-07-02T08:25:44;14.50;99.90
16305;DHT22;8261;47.678;-122.174;2023-07-02T08:28:17;14.50;99.90
16305;DHT22;8261;47.678;-122.174;2023-07-02T08:30:48;14.40;99.90
16305;DHT22;8261;47.678;-122.174;2023-07-02T08:33:21;14.40;99.90
16305;DHT22;8261;47.678;-122.174;2023-07-02T08:35:56;14.40;99.90
16305;DHT22;8261;47.678;-122.174;2023-07-02T08:38:31;14.40;99.90
16305;DHT22;8261;47.678;-122.174;2023-07-02T08:41:03;14.40;99.90
16305;DHT22;8261;47.678;-122.174;2023-07-02T08:43:36;14.40;99.90
16305;DHT22;8261;47.678;-122.174;2023-07-02T08:46:08;14.40;99.90
16305;DHT22;8261;47.678;-122.174;2023-07-02T08:48:41;14.30;99.90
16305;DHT22;8261;47.678;-122.174;2023-07-02T08:51:13;14.30;99.90
16305;DHT22;8261;47.678;-122.174;2023-07-02T08:53:52;14.20;99.90
16305;DHT22;8261;47.678;-122.174;2023-07-02T08:56:24;14.20;99.90
16305;DHT22;8261;47.678;-122.174;2023-07-02T08:58:56;14.20;99.90
16305;DHT22;8261;47.678;-122.174;2023-07-02T09:01:29;14.20;99.90
16305;DHT22;8261;47.678;-122.174;2023-07-02T09:04:03;14.10;99.90
16305;DHT22;8261;47.678;-122.174;2023-07-02T09:06:34;14.10;99.90
16305;DHT22;8261;47.678;-122.174;2023-07-02T09:09:10;14.10;99.90
16305;DHT22;8261;47.678;-122.174;2023-07-02T09:11:48;14.10;99.90
16305;DHT22;8261;47.678;-122.174;2023-07-02T09:14:28;14.10;99.90
16305;DHT22;8261;47.678;-122.174;2023-07-02T09:17:04;14.00;99.90
16305;DHT22;8261;47.678;-122.174;2023-07-02T09:19:50;14.00;99.90
16305;DHT22;8261;47.678;-122.174;2023-07-02T09:22:21;13.90;99.90
16305;DHT22;8261;47.678;-122.174;2023-07-02T09:24:57;13.90;99.90
16305;DHT22;8261;47.678;-122.174;2023-07-02T09:27:36;13.80;99.90
16305;DHT22;8261;47.678;-122.174;2023-07-02T09:30:09;13.80;99.90
16305;DHT22;8261;47.678;-122.174;2023-07-02T09:32:43;13.80;99.90
16305;DHT22;8261;47.678;-122.174;2023-07-02T09:35:20;13.80;99.90
16305;DHT22;8261;47.678;-122.174;2023-07-02T09:37:51;13.90;99.90
16305;DHT22;8261;47.678;-122.174;2023-07-02T09:40:25;13.90;99.90
16305;DHT22;8261;47.678;-122.174;2023-07-02T09:42:58;13.80;99.90
16305;DHT22;8261;47.678;-122.174;2023-07-02T09:45:31;13.80;99.90
16305;DHT22;8261;47.678;-122.174;2023-07-02T09:48:04;13.80;99.90
16305;DHT22;8261;47.678;-122.174;2023-07-02T09:50:36;13.70;99.90
16305;DHT22;8261;47.678;-122.174;2023-07-02T09:53:09;13.70;99.90
16305;DHT22;8261;47.678;-122.174;2023-07-02T09:55:46;13.70;99.90
16305;DHT22;8261;47.678;-122.174;2023-07-02T09:58:18;13.70;99.90
16305;DHT22;8261;47.678;-122.174;2023-07-02T10:00:51;13.70;99.90
16305;DHT22;8261;47.678;-122.174;2023-07-02T10:03:30;13.70;99.90
16305;DHT22;8261;47.678;-122.174;2023-07-02T10:06:07;13.70;99.90
16305;DHT22;8261;47.678;-122.174;2023-07-02T10:08:39;13.60;99.90
16305;DHT22;8261;47.678;-122.174;2023-07-02T10:11:15;13.60;99.90
16305;DHT22;8261;47.678;-122.174;2023-07-02T10:13:59;13.50;99.90
16305;DHT22;8261;47.678;-122.174;2023-07-02T10:16:31;13.50;99.90
16305;DHT22;8261;47.678;-122.174;2023-07-02T10:19:10;13.50;99.90
16305;DHT22;8261;47.678;-122.174;2023-07-02T10:21:43;13.50;99.90
16305;DHT22;8261;47.678;-122.174;2023-07-02T10:24:21;13.50;99.90
16305;DHT22;8261;47.678;-122.174;2023-07-02T10:26:59;13.50;99.90
16305;DHT22;8261;47.678;-122.174;2023-07-02T10:29:32;13.50;99.90
16305;DHT22;8261;47.678;-122.174;2023-07-02T10:32:06;13.50;99.90
16305;DHT22;8261;47.678;-122.174;2023-07-02T10:34:38;13.40;99.90
16305;DHT22;8261;47.678;-122.174;2023-07-02T10:37:11;13.40;99.90
16305;DHT22;8261;47.678;-122.174;2023-07-02T10:39:43;13.40;99.90
16305;DHT22;8261;47.678;-122.174;2023-07-02T10:42:28;13.40;99.90
16305;DHT22;8261;47.678;-122.174;2023-07-02T10:45:05;13.40;99.90
16305;DHT22;8261;47.678;-122.174;2023-07-02T10:47:40;13.30;99.90
16305;DHT22;8261;47.678;-122.174;2023-07-02T10:50:16;13.30;99.90
16305;DHT22;8261;47.678;-122.174;2023-07-02T10:52:48;13.20;99.90
16305;DHT22;8261;47.678;-122.174;2023-07-02T10:55:22;13.20;99.90
16305;DHT22;8261;47.678;-122.174;2023-07-02T10:58:06;13.10;99.90
16305;DHT22;8261;47.678;-122.174;2023-07-02T11:00:45;13.10;99.90
16305;DHT22;8261;47.678;-122.174;2023-07-02T11:03:18;13.10;99.90
16305;DHT22;8261;47.678;-122.174;2023-07-02T11:05:51;13.00;99.90
16305;DHT22;8261;47.678;-122.174;2023-07-02T11:08:34;13.00;99.90
16305;DHT22;8261;47.678;-122.174;2023-07-02T11:11:07;13.00;99.90
16305;DHT22;8261;47.678;-122.174;2023-07-02T11:13:48;13.00;99.90
16305;DHT22;8261;47.678;-122.174;2023-07-02T11:16:24;12.90;99.90
16305;DHT22;8261;47.678;-122.174;2023-07-02T11:19:11;12.90;99.90
16305;DHT22;8261;47.678;-122.174;2023-07-02T11:21:52;12.90;99.90
16305;DHT22;8261;47.678;-122.174;2023-07-02T11:24:29;12.80;99.90
16305;DHT22;8261;47.678;-122.174;2023-07-02T11:27:05;12.60;99.90
16305;DHT22;8261;47.678;-122.174;2023-07-02T11:29:41;12.70;99.90
16305;DHT22;8261;47.678;-122.174;2023-07-02T11:32:13;12.70;99.90
16305;DHT22;8261;47.678;-122.174;2023-07-02T11:34:54;12.80;99.90
16305;DHT22;8261;47.678;-122.174;2023-07-02T11:37:26;12.80;99.90
16305;DHT22;8261;47.678;-122.174;2023-07-02T11:39:58;12.80;99.90
16305;DHT22;8261;47.678;-122.174;2023-07-02T11:42:30;12.70;99.90
16305;DHT22;8261;47.678;-122.174;2023-07-02T11:45:11;12.60;99.90
16305;DHT22;8261;47.678;-122.174;2023-07-02T11:47:48;12.60;99.90
16305;DHT22;8261;47.678;-122.174;2023-07-02T11:50:22;12.60;99.90
16305;DHT22;8261;47.678;-122.174;2023-07-02T11:52:56;12.60;99.90
16305;DHT22;8261;47.678;-122.174;2023-07-02T11:55:31;12.60;99.90
16305;DHT22;8261;47.678;-122.174;2023-07-02T11:58:03;12.60;99.90
16305;DHT22;8261;47.678;-122.174;2023-07-02T12:00:37;12.50;99.90
16305;DHT22;8261;47.678;-122.174;2023-07-02T12:03:09;12.50;99.90
16305;DHT22;8261;47.678;-122.174;2023-07-02T12:05:41;12.50;99.90
16305;DHT22;8261;47.678;-122.174;2023-07-02T12:08:14;12.50;99.90
16305;DHT22;8261;47.678;-122.174;2023-07-02T12:10:46;12.40;99.90
16305;DHT22;8261;47.678;-122.174;2023-07-02T12:13:18;12.40;99.90
16305;DHT22;8261;47.678;-122.174;2023-07-02T12:15:53;12.30;99.90
16305;DHT22;8261;47.678;-122.174;2023-07-02T12:18:26;12.30;99.90
16305;DHT22;8261;47.678;-122.174;2023-07-02T12:20:59;12.30;99.90
16305;DHT22;8261;47.678;-122.174;2023-07-02T12:23:32;12.30;99.90
16305;DHT22;8261;47.678;-122.174;2023-07-02T12:26:06;12.30;99.90
16305;DHT22;8261;47.678;-122.174;2023-07-02T12:28:39;12.30;99.90
16305;DHT22;8261;47.678;-122.174;2023-07-02T12:31:13;12.30;99.90
16305;DHT22;8261;47.678;-122.174;2023-07-02T12:33:47;12.30;99.90
16305;DHT22;8261;47.678;-122.174;2023-07-02T12:36:21;12.30;99.90
16305;DHT22;8261;47.678;-122.174;2023-07-02T12:38:53;12.30;99.90
16305;DHT22;8261;47.678;-122.174;2023-07-02T12:41:25;12.30;99.90
16305;DHT22;8261;47.678;-122.174;2023-07-02T12:43:57;12.30;99.90
16305;DHT22;8261;47.678;-122.174;2023-07-02T12:46:31;12.30;99.90
16305;DHT22;8261;47.678;-122.174;2023-07-02T12:49:02;12.40;99.90
16305;DHT22;8261;47.678;-122.174;2023-07-02T12:51:34;12.40;99.90
16305;DHT22;8261;47.678;-122.174;2023-07-02T12:54:06;12.40;99.90
16305;DHT22;8261;47.678;-122.174;2023-07-02T12:56:38;12.40;99.90
16305;DHT22;8261;47.678;-122.174;2023-07-02T12:59:10;12.50;99.90
16305;DHT22;8261;47.678;-122.174;2023-07-02T13:01:44;12.50;99.90
16305;DHT22;8261;47.678;-122.174;2023-07-02T13:04:17;12.60;99.90
16305;DHT22;8261;47.678;-122.174;2023-07-02T13:06:49;12.60;99.90
16305;DHT22;8261;47.678;-122.174;2023-07-02T13:09:21;12.60;99.90
16305;DHT22;8261;47.678;-122.174;2023-07-02T13:11:53;12.60;99.90
16305;DHT22;8261;47.678;-122.174;2023-07-02T13:14:26;12.60;99.90
16305;DHT22;8261;47.678;-122.174;2023-07-02T13:17:03;12.70;99.90
16305;DHT22;8261;47.678;-122.174;2023-07-02T13:19:37;12.70;99.90
16305;DHT22;8261;47.678;-122.174;2023-07-02T13:22:10;12.70;99.90
16305;DHT22;8261;47.678;-122.174;2023-07-02T13:24:43;12.70;99.90
16305;DHT22;8261;47.678;-122.174;2023-07-02T13:27:17;12.70;99.90
16305;DHT22;8261;47.678;-122.174;2023-07-02T13:29:56;12.80;99.90
16305;DHT22;8261;47.678;-122.174;2023-07-02T13:33:05;12.80;99.90
16305;DHT22;8261;47.678;-122.174;2023-07-02T13:35:38;12.80;99.90
16305;DHT22;8261;47.678;-122.174;2023-07-02T13:38:10;12.80;99.90
16305;DHT22;8261;47.678;-122.174;2023-07-02T13:40:42;12.80;99.90
16305;DHT22;8261;47.678;-122.174;2023-07-02T13:43:18;12.90;99.90
16305;DHT22;8261;47.678;-122.174;2023-07-02T13:45:51;12.90;99.90
16305;DHT22;8261;47.678;-122.174;2023-07-02T13:48:43;12.90;99.90
16305;DHT22;8261;47.678;-122.174;2023-07-02T13:51:16;13.00;99.90
16305;DHT22;8261;47.678;-122.174;2023-07-02T13:53:49;13.00;99.90
16305;DHT22;8261;47.678;-122.174;2023-07-02T13:56:21;13.10;99.90
16305;DHT22;8261;47.678;-122.174;2023-07-02T13:59:05;13.10;99.90
16305;DHT22;8261;47.678;-122.174;2023-07-02T14:01:36;13.10;99.90
16305;DHT22;8261;47.678;-122.174;2023-07-02T14:04:08;13.20;99.90
16305;DHT22;8261;47.678;-122.174;2023-07-02T14:06:42;13.20;99.90
16305;DHT22;8261;47.678;-122.174;2023-07-02T14:09:14;13.30;99.90
16305;DHT22;8261;47.678;-122.174;2023-07-02T14:11:45;13.30;99.90
16305;DHT22;8261;47.678;-122.174;2023-07-02T14:14:19;13.30;99.90
16305;DHT22;8261;47.678;-122.174;2023-07-02T14:16:51;13.40;99.90
16305;DHT22;8261;47.678;-122.174;2023-07-02T14:19:27;13.40;99.90
16305;DHT22;8261;47.678;-122.174;2023-07-02T14:22:00;13.50;99.90
16305;DHT22;8261;47.678;-122.174;2023-07-02T14:24:34;13.50;99.90
16305;DHT22;8261;47.678;-122.174;2023-07-02T14:27:10;13.50;99.90
16305;DHT22;8261;47.678;-122.174;2023-07-02T14:29:44;13.60;99.90
16305;DHT22;8261;47.678;-122.174;2023-07-02T14:32:18;13.60;99.90
16305;DHT22;8261;47.678;-122.174;2023-07-02T14:35:09;13.70;99.90
16305;DHT22;8261;47.678;-122.174;2023-07-02T14:37:41;13.70;99.90
16305;DHT22;8261;47.678;-122.174;2023-07-02T14:40:16;13.80;99.90
16305;DHT22;8261;47.678;-122.174;2023-07-02T14:42:49;13.80;99.90
16305;DHT22;8261;47.678;-122.174;2023-07-02T14:45:22;13.90;99.90
16305;DHT22;8261;47.678;-122.174;2023-07-02T14:47:54;14.00;99.90
16305;DHT22;8261;47.678;-122.174;2023-07-02T14:50:28;14.60;99.90
16305;DHT22;8261;47.678;-122.174;2023-07-02T14:53:02;15.30;99.90
16305;DHT22;8261;47.678;-122.174;2023-07-02T14:55:34;16.20;99.90
16305;DHT22;8261;47.678;-122.174;2023-07-02T14:58:06;17.00;99.90
16305;DHT22;8261;47.678;-122.174;2023-07-02T15:00:45;17.50;99.90
16305;DHT22;8261;47.678;-122.174;2023-07-02T15:03:18;18.00;99.90
16305;DHT22;8261;47.678;-122.174;2023-07-02T15:05:52;18.40;99.90
16305;DHT22;8261;47.678;-122.174;2023-07-02T15:08:26;18.60;99.90
16305;DHT22;8261;47.678;-122.174;2023-07-02T15:10:59;18.80;99.90
16305;DHT22;8261;47.678;-122.174;2023-07-02T15:13:30;19.20;99.90
16305;DHT22;8261;47.678;-122.174;2023-07-02T15:16:05;19.10;99.90
16305;DHT22;8261;47.678;-122.174;2023-07-02T15:18:40;19.30;99.90
16305;DHT22;8261;47.678;-122.174;2023-07-02T15:21:32;19.60;99.90
16305;DHT22;8261;47.678;-122.174;2023-07-02T15:24:06;19.80;99.90
16305;DHT22;8261;47.678;-122.174;2023-07-02T15:26:41;20.00;99.90
16305;DHT22;8261;47.678;-122.174;2023-07-02T15:29:20;19.90;99.90
16305;DHT22;8261;47.678;-122.174;2023-07-02T15:34:56;19.80;99.90
16305;DHT22;8261;47.678;-122.174;2023-07-02T15:40:11;18.80;99.90
16305;DHT22;8261;47.678;-122.174;2023-07-02T15:42:46;18.50;99.90
16305;DHT22;8261;47.678;-122.174;2023-07-02T15:45:21;18.30;99.90
16305;DHT22;8261;47.678;-122.174;2023-07-02T15:47:54;18.20;99.90
16305;DHT22;8261;47.678;-122.174;2023-07-02T15:50:34;18.00;99.90
16305;DHT22;8261;47.678;-122.174;2023-07-02T15:53:06;17.90;99.90
16305;DHT22;8261;47.678;-122.174;2023-07-02T15:55:41;17.80;99.90
16305;DHT22;8261;47.678;-122.174;2023-07-02T15:58:13;17.80;99.90
16305;DHT22;8261;47.678;-122.174;2023-07-02T16:00:44;17.70;99.90
16305;DHT22;8261;47.678;-122.174;2023-07-02T16:03:17;17.60;99.90
16305;DHT22;8261;47.678;-122.174;2023-07-02T16:05:57;17.60;99.90
16305;DHT22;8261;47.678;-122.174;2023-07-02T16:08:31;17.60;99.90
16305;DHT22;8261;47.678;-122.174;2023-07-02T16:11:05;17.60;99.90